createdAt,value
2022-08-25T00:00:18.098Z,101685.69
2022-08-25T00:02:55.531Z,101688.38
2022-08-25T00:05:29.458Z,101690.22
2022-08-25T00:08:00.327Z,101692.94
2022-08-25T00:10:28.583Z,101688.38
2022-08-25T00:12:56.300Z,101691.09
2022-08-25T00:15:24.312Z,101686.66
2022-08-25T00:17:52.289Z,101691.22
2022-08-25T00:20:20.164Z,101689.38
2022-08-25T00:22:49.942Z,101689.38
2022-08-25T00:25:18.277Z,101693.91
2022-08-25T00:27:47.535Z,101684.09
2022-08-25T00:30:16.780Z,101687.66
2022-08-25T00:32:55.043Z,101688.63
2022-08-25T00:35:25.471Z,101688.63
2022-08-25T00:37:54.703Z,101689.50
2022-08-25T00:40:23.546Z,101688.63
2022-08-25T00:42:51.405Z,101691.31
2022-08-25T00:45:19.396Z,101691.41
2022-08-25T00:47:47.191Z,101698.56
2022-08-25T00:50:14.985Z,101694.97
2022-08-25T00:52:46.188Z,101692.28
2022-08-25T00:55:17.201Z,101695.94
2022-08-25T00:57:47.496Z,101698.63
2022-08-25T01:00:17.302Z,101696.81
2022-08-25T01:02:45.093Z,101695.94
2022-08-25T01:05:12.999Z,101700.47
2022-08-25T01:07:42.310Z,101690.66
2022-08-25T01:10:13.532Z,101697.78
2022-08-25T01:12:42.746Z,101690.66
2022-08-25T01:15:11.332Z,101690.66
2022-08-25T01:17:46.496Z,101690.75
2022-08-25T01:20:14.790Z,101689.81
2022-08-25T01:22:44.210Z,101693.44
2022-08-25T01:25:24.386Z,101693.44
2022-08-25T01:27:52.211Z,101690.75
2022-08-25T01:30:20.188Z,101691.66
2022-08-25T01:32:47.939Z,101688.94
2022-08-25T01:35:15.961Z,101688.06
2022-08-25T01:37:45.147Z,101683.63
2022-08-25T01:40:13.789Z,101682.78
2022-08-25T01:42:48.237Z,101682.78
2022-08-25T01:45:16.370Z,101683.63
2022-08-25T01:47:44.123Z,101682.78
2022-08-25T01:50:47.109Z,101682.78
2022-08-25T01:53:24.247Z,101678.38
2022-08-25T01:56:01.791Z,101682.91
2022-08-25T01:58:31.357Z,101674.69
2022-08-25T02:01:00.118Z,101683.75
2022-08-25T02:03:28.749Z,101682.00
2022-08-25T02:05:57.412Z,101693.69
2022-08-25T02:08:26.563Z,101688.28
2022-08-25T02:10:55.636Z,101685.59
2022-08-25T02:13:26.891Z,101688.28
2022-08-25T02:16:00.667Z,101679.31
2022-08-25T02:18:28.903Z,101684.69
2022-08-25T02:20:56.654Z,101682.00
2022-08-25T02:23:24.355Z,101682.00
2022-08-25T02:25:53.793Z,101682.97
2022-08-25T02:28:21.505Z,101684.81
2022-08-25T02:30:49.290Z,101684.81
2022-08-25T02:33:17.105Z,101694.63
2022-08-25T02:35:45.074Z,101690.22
2022-08-25T02:38:12.839Z,101687.53
2022-08-25T02:40:40.670Z,101683.97
2022-08-25T02:43:09.755Z,101691.19
2022-08-25T02:45:37.749Z,101691.94
2022-08-25T02:48:05.723Z,101692.16
2022-08-25T02:50:33.578Z,101685.78
2022-08-25T02:53:01.376Z,101683.97
2022-08-25T02:55:29.092Z,101683.09
2022-08-25T02:57:56.772Z,101683.97
2022-08-25T03:00:26.464Z,101676.84
2022-08-25T03:02:54.289Z,101674.16
2022-08-25T03:05:22.131Z,101667.91
2022-08-25T03:07:49.818Z,101675.00
2022-08-25T03:10:20.845Z,101667.91
2022-08-25T03:12:48.572Z,101659.81
2022-08-25T03:15:17.276Z,101670.59
2022-08-25T03:17:47.351Z,101662.50
2022-08-25T03:20:15.474Z,101659.81
2022-08-25T03:22:43.485Z,101662.50
2022-08-25T03:25:29.047Z,101655.38
2022-08-25T03:27:56.808Z,101655.38
2022-08-25T03:30:24.540Z,101652.66
2022-08-25T03:32:53.772Z,101651.81
2022-08-25T03:35:21.600Z,101655.38
2022-08-25T03:37:49.301Z,101646.41
2022-08-25T03:40:17.609Z,101653.66
2022-08-25T03:42:46.025Z,101651.81
2022-08-25T03:45:14.681Z,101650.09
2022-08-25T03:47:42.388Z,101646.53
2022-08-25T03:50:12.410Z,101645.56
2022-08-25T03:52:51.137Z,101638.44
2022-08-25T03:55:21.798Z,101638.44
2022-08-25T03:57:49.617Z,101635.75
2022-08-25T04:00:18.587Z,101629.50
2022-08-25T04:02:46.990Z,101630.34
2022-08-25T04:05:16.477Z,101627.66
2022-08-25T04:07:44.263Z,101624.09
2022-08-25T04:10:12.465Z,101626.81
2022-08-25T04:12:40.637Z,101617.81
2022-08-25T04:15:09.306Z,101620.53
2022-08-25T04:17:38.618Z,101620.53
2022-08-25T04:20:08.111Z,101618.81
2022-08-25T04:22:38.379Z,101623.34
2022-08-25T04:25:07.324Z,101620.53
2022-08-25T04:27:35.104Z,101624.19
2022-08-25T04:30:03.017Z,101624.19
2022-08-25T04:32:32.205Z,101623.22
2022-08-25T04:35:00.064Z,101612.56
2022-08-25T04:37:27.836Z,101608.03
2022-08-25T04:39:56.935Z,101609.00
2022-08-25T04:42:26.338Z,101616.09
2022-08-25T04:44:54.412Z,101612.56
2022-08-25T04:47:22.141Z,101612.56
2022-08-25T04:49:50.003Z,101617.09
2022-08-25T04:52:17.872Z,101614.38
2022-08-25T04:54:45.584Z,101615.38
2022-08-25T04:57:14.736Z,101617.28
2022-08-25T04:59:42.462Z,101623.88
2022-08-25T05:02:10.282Z,101611.41
2022-08-25T05:04:46.961Z,101616.19
2022-08-25T05:07:14.672Z,101618.22
2022-08-25T05:09:42.512Z,101619.41
2022-08-25T05:12:10.523Z,101613.34
2022-08-25T05:14:41.656Z,101620.66
2022-08-25T05:17:09.367Z,101620.84
2022-08-25T05:19:37.238Z,101619.34
2022-08-25T05:22:05.015Z,101620.44
2022-08-25T05:24:32.744Z,101625.91
2022-08-25T05:27:00.508Z,101626.13
2022-08-25T05:29:28.226Z,101627.94
2022-08-25T05:31:57.497Z,101625.47
2022-08-25T05:34:25.748Z,101622.13
2022-08-25T05:36:54.569Z,101621.53
2022-08-25T05:39:22.542Z,101621.00
2022-08-25T05:41:51.616Z,101623.88
2022-08-25T05:44:21.391Z,101627.66
2022-08-25T05:46:49.675Z,101629.69
2022-08-25T05:49:18.852Z,101628.91
2022-08-25T05:51:46.617Z,101632.59
2022-08-25T05:54:14.315Z,101631.91
2022-08-25T05:56:42.056Z,101647.22
2022-08-25T05:59:10.495Z,101638.34
2022-08-25T06:01:56.168Z,101636.63
2022-08-25T06:04:25.244Z,101644.72
2022-08-25T06:06:54.879Z,101643.75
2022-08-25T06:09:23.155Z,101640.31
2022-08-25T06:11:54.641Z,101649.13
2022-08-25T06:14:23.722Z,101643.75
2022-08-25T06:16:52.213Z,101646.25
2022-08-25T06:19:21.229Z,101648.75
2022-08-25T06:21:50.592Z,101645.84
2022-08-25T06:24:18.563Z,101637.66
2022-08-25T06:26:46.259Z,101641.00
2022-08-25T06:29:15.018Z,101640.81
2022-08-25T06:31:43.377Z,101642.44
2022-08-25T06:34:11.866Z,101639.53
2022-08-25T06:36:39.974Z,101643.88
2022-08-25T06:39:10.613Z,101641.91
2022-08-25T06:41:47.354Z,101640.88
2022-08-25T06:44:15.126Z,101638.94
2022-08-25T06:46:42.837Z,101637.84
2022-08-25T06:49:11.556Z,101634.22
2022-08-25T06:51:39.352Z,101637.66
2022-08-25T06:54:07.786Z,101644.69
2022-08-25T06:56:37.255Z,101640.16
2022-08-25T06:59:06.291Z,101635.50
2022-08-25T07:01:34.747Z,101629.19
2022-08-25T07:04:04.986Z,101636.16
2022-08-25T07:06:36.500Z,101651.28
2022-08-25T07:09:05.387Z,101641.34
2022-08-25T07:11:34.426Z,101642.22
2022-08-25T07:14:04.175Z,101642.00
2022-08-25T07:16:33.995Z,101633.94
2022-08-25T07:19:02.553Z,101637.50
2022-08-25T07:21:33.695Z,101634.69
2022-08-25T07:24:06.377Z,101630.19
2022-08-25T07:26:37.727Z,101630.06
2022-08-25T07:29:09.012Z,101627.38
2022-08-25T07:31:37.455Z,101632.63
2022-08-25T07:34:22.597Z,101629.00
2022-08-25T07:36:50.663Z,101627.16
2022-08-25T07:39:18.626Z,101636.97
2022-08-25T07:41:52.011Z,101624.25
2022-08-25T07:44:22.201Z,101633.22
2022-08-25T07:46:50.583Z,101636.75
2022-08-25T07:49:23.095Z,101635.78
2022-08-25T07:52:04.742Z,101634.81
2022-08-25T07:54:35.072Z,101637.50
2022-08-25T07:57:03.492Z,101634.81
2022-08-25T07:59:38.941Z,101633.91
2022-08-25T08:02:08.339Z,101633.78
2022-08-25T08:04:37.339Z,101629.38
2022-08-25T08:07:05.128Z,101631.09
2022-08-25T08:09:39.803Z,101625.56
2022-08-25T08:12:08.205Z,101628.28
2022-08-25T08:14:39.561Z,101617.50
2022-08-25T08:17:12.948Z,101622.88
2022-08-25T08:19:44.871Z,101613.84
2022-08-25T08:22:15.073Z,101614.59
2022-08-25T08:24:54.181Z,101603.81
2022-08-25T08:27:22.979Z,101608.22
2022-08-25T08:29:52.287Z,101610.84
2022-08-25T08:32:20.444Z,101610.72
2022-08-25T08:34:51.430Z,101605.31
2022-08-25T08:37:21.973Z,101604.34
2022-08-25T08:39:51.289Z,101597.16
2022-08-25T08:42:22.419Z,101595.41
2022-08-25T08:45:09.478Z,101595.31
2022-08-25T08:47:48.788Z,101590.78
2022-08-25T08:50:28.047Z,101592.63
2022-08-25T08:53:03.461Z,101586.25
2022-08-25T08:55:34.366Z,101582.56
2022-08-25T08:58:04.286Z,101571.78
2022-08-25T09:00:34.425Z,101573.53
2022-08-25T09:03:06.293Z,101573.53
2022-08-25T09:05:42.766Z,101578.81
2022-08-25T09:08:14.797Z,101576.97
2022-08-25T09:10:58.576Z,101578.69
2022-08-25T09:13:31.599Z,101578.69
2022-08-25T09:16:34.010Z,101582.25
2022-08-25T09:19:09.418Z,101583.13
2022-08-25T09:21:41.752Z,101577.75
2022-08-25T09:24:22.531Z,101575.03
2022-08-25T09:26:55.077Z,101578.59
2022-08-25T09:29:26.257Z,101575.91
2022-08-25T09:31:58.437Z,101576.75
2022-08-25T09:34:32.259Z,101574.06
2022-08-25T09:37:00.086Z,101563.28
2022-08-25T09:39:34.641Z,101560.59
2022-08-25T09:42:04.400Z,101561.44
2022-08-25T09:44:40.372Z,101567.69
2022-08-25T09:47:15.815Z,101559.59
2022-08-25T09:49:47.802Z,101557.75
2022-08-25T09:52:22.211Z,101559.50
2022-08-25T09:54:50.326Z,101542.44
2022-08-25T09:57:34.953Z,101545.91
2022-08-25T10:00:16.793Z,101549.47
2022-08-25T10:02:48.371Z,101542.25
2022-08-25T10:05:19.348Z,101541.38
2022-08-25T10:07:52.939Z,101542.25
2022-08-25T10:10:24.599Z,101538.56
2022-08-25T10:12:52.444Z,101539.44
2022-08-25T10:15:29.795Z,101541.16
2022-08-25T10:18:21.921Z,101529.53
2022-08-25T10:21:02.744Z,101532.09
2022-08-25T10:23:31.876Z,101526.69
2022-08-25T10:26:06.330Z,101530.25
2022-08-25T10:28:39.025Z,101530.16
2022-08-25T10:31:11.211Z,101520.25
2022-08-25T10:33:45.964Z,101514.00
2022-08-25T10:36:21.451Z,101513.00
2022-08-25T10:38:57.052Z,101516.56
2022-08-25T10:41:35.845Z,101506.63
2022-08-25T10:44:28.687Z,101503.94
2022-08-25T10:47:06.704Z,101497.56
2022-08-25T10:49:42.416Z,101497.56
2022-08-25T10:52:15.447Z,101493.91
2022-08-25T10:54:46.675Z,101478.69
2022-08-25T10:57:21.646Z,101485.81
2022-08-25T10:59:53.414Z,101474.91
2022-08-25T11:02:38.319Z,101466.81
2022-08-25T11:05:12.629Z,101470.38
2022-08-25T11:07:43.458Z,101471.22
2022-08-25T11:10:13.360Z,101464.88
2022-08-25T11:12:46.084Z,101472.00
2022-08-25T11:15:24.646Z,101463.91
2022-08-25T11:17:56.002Z,101465.75
2022-08-25T11:20:33.679Z,101458.38
2022-08-25T11:23:08.026Z,101453.84
2022-08-25T11:25:38.280Z,101453.00
2022-08-25T11:28:10.967Z,101459.25
2022-08-25T11:30:40.366Z,101456.56
2022-08-25T11:33:10.824Z,101454.72
2022-08-25T11:35:43.426Z,101444.81
2022-08-25T11:38:24.265Z,101447.50
2022-08-25T11:41:00.355Z,101442.13
2022-08-25T11:43:40.586Z,101442.13
2022-08-25T11:46:17.621Z,101431.31
2022-08-25T11:48:56.307Z,101425.94
2022-08-25T11:51:33.724Z,101428.50
2022-08-25T11:54:17.763Z,101438.44
2022-08-25T11:56:53.061Z,101428.50
2022-08-25T11:59:35.736Z,101427.53
2022-08-25T12:02:03.576Z,101427.53
2022-08-25T12:04:44.239Z,101425.69
2022-08-25T12:07:28.109Z,101423.88
2022-08-25T12:10:14.003Z,101427.44
2022-08-25T12:12:57.337Z,101411.34
2022-08-25T12:15:26.898Z,101416.72
2022-08-25T12:18:09.898Z,101414.03
2022-08-25T12:20:57.376Z,101414.88
2022-08-25T12:23:30.282Z,101416.72
2022-08-25T12:25:59.673Z,101404.09
2022-08-25T12:28:42.669Z,101414.78
2022-08-25T12:31:18.788Z,101405.84
2022-08-25T12:33:53.480Z,101396.78
2022-08-25T12:36:28.842Z,101396.78
2022-08-25T12:39:09.084Z,101402.91
2022-08-25T12:41:37.211Z,101396.78
2022-08-25T12:44:16.800Z,101404.88
2022-08-25T12:46:48.336Z,101404.75
2022-08-25T12:49:30.951Z,101398.47
2022-08-25T12:52:02.127Z,101393.09
2022-08-25T12:54:43.574Z,101393.94
2022-08-25T12:57:25.019Z,101388.69
2022-08-25T12:59:58.747Z,101386.72
2022-08-25T13:02:52.052Z,101384.00
2022-08-25T13:05:43.114Z,101385.75
2022-08-25T13:08:26.824Z,101385.00
2022-08-25T13:10:57.152Z,101390.28
2022-08-25T13:13:32.791Z,101391.16
2022-08-25T13:16:01.645Z,101389.41
2022-08-25T13:18:31.507Z,101378.63
2022-08-25T13:21:06.779Z,101383.06
2022-08-25T13:23:36.921Z,101380.38
2022-08-25T13:26:10.522Z,101376.81
2022-08-25T13:28:40.858Z,101376.69
2022-08-25T13:31:17.391Z,101369.56
2022-08-25T13:33:53.457Z,101365.03
2022-08-25T13:36:43.453Z,101358.66
2022-08-25T13:39:20.024Z,101355.09
2022-08-25T13:42:14.651Z,101354.13
2022-08-25T13:44:52.287Z,101351.41
2022-08-25T13:47:43.340Z,101346.03
2022-08-25T13:50:18.192Z,101353.13
2022-08-25T13:52:49.834Z,101343.22
2022-08-25T13:55:27.341Z,101350.44
2022-08-25T13:57:58.274Z,101343.22
2022-08-25T14:00:31.773Z,101336.84
2022-08-25T14:03:00.574Z,101338.56
2022-08-25T14:05:40.426Z,101337.72
2022-08-25T14:08:28.418Z,101340.41
2022-08-25T14:11:03.664Z,101336.72
2022-08-25T14:13:34.885Z,101337.59
2022-08-25T14:16:09.997Z,101327.69
2022-08-25T14:18:38.035Z,101319.59
2022-08-25T14:21:10.854Z,101327.69
2022-08-25T14:23:39.816Z,101320.44
2022-08-25T14:26:07.766Z,101316.88
2022-08-25T14:28:39.848Z,101326.69
2022-08-25T14:31:09.362Z,101320.44
2022-08-25T14:33:38.707Z,101318.69
2022-08-25T14:36:08.224Z,101322.28
2022-08-25T14:38:38.985Z,101319.59
2022-08-25T14:43:38.479Z,101315.03
2022-08-25T14:46:11.029Z,101314.19
2022-08-25T14:48:44.828Z,101312.34
2022-08-25T14:51:13.186Z,101318.59
2022-08-25T14:53:41.371Z,101309.53
2022-08-25T14:56:10.293Z,101310.38
2022-08-25T14:58:48.513Z,101307.69
2022-08-25T15:01:28.745Z,101311.22
2022-08-25T15:03:59.180Z,101305.84
2022-08-25T15:06:27.751Z,101299.59
2022-08-25T15:09:11.372Z,101294.19
2022-08-25T15:11:41.747Z,101300.34
2022-08-25T15:14:12.198Z,101299.50
2022-08-25T15:16:42.459Z,101298.50
2022-08-25T15:19:15.936Z,101294.81
2022-08-25T15:21:47.895Z,101293.97
2022-08-25T15:24:17.254Z,101295.25
2022-08-25T15:29:22.245Z,101275.53
2022-08-25T15:31:50.827Z,101277.03
2022-08-25T15:34:18.614Z,101275.66
2022-08-25T15:36:47.022Z,101282.78
2022-08-25T15:39:15.067Z,101275.44
2022-08-25T15:41:46.351Z,101278.88
2022-08-25T15:44:17.431Z,101277.78
2022-08-25T15:46:50.148Z,101278.53
2022-08-25T15:49:20.757Z,101267.59
2022-08-25T15:51:51.685Z,101273.63
2022-08-25T15:54:20.196Z,101274.09
2022-08-25T15:56:47.952Z,101276.94
2022-08-25T15:59:16.026Z,101276.34
2022-08-25T16:01:44.265Z,101269.94
2022-08-25T16:04:14.830Z,101275.34
2022-08-25T16:06:42.701Z,101273.63
2022-08-25T16:09:10.462Z,101274.59
2022-08-25T16:11:38.971Z,101271.88
2022-08-25T16:14:07.151Z,101270.66
2022-08-25T16:16:35.222Z,101269.81
2022-08-25T16:19:03.577Z,101270.94
2022-08-25T16:21:35.008Z,101264.69
2022-08-25T16:24:07.398Z,101269.94
2022-08-25T16:26:36.516Z,101267.25
2022-08-25T16:29:06.482Z,101261.84
2022-08-25T16:31:34.487Z,101264.53
2022-08-25T16:34:02.406Z,101264.53
2022-08-25T16:36:30.224Z,101252.03
2022-08-25T16:39:00.978Z,101252.13
2022-08-25T16:41:34.011Z,101250.28
2022-08-25T16:44:02.265Z,101252.88
2022-08-25T16:46:31.257Z,101249.06
2022-08-25T16:49:01.104Z,101249.94
2022-08-25T16:51:29.560Z,101263.09
2022-08-25T16:54:15.384Z,101253.38
2022-08-25T16:56:55.057Z,101246.38
2022-08-25T16:59:23.629Z,101252.75
2022-08-25T17:01:52.405Z,101250.06
2022-08-25T17:04:20.637Z,101246.63
2022-08-25T17:06:49.573Z,101248.47
2022-08-25T17:09:23.844Z,101259.28
2022-08-25T17:11:56.846Z,101255.69
2022-08-25T17:14:24.696Z,101253.00
2022-08-25T17:16:54.728Z,101257.53
2022-08-25T17:19:23.955Z,101254.72
2022-08-25T17:21:52.384Z,101250.28
2022-08-25T17:24:20.882Z,101249.34
2022-08-25T17:26:50.131Z,101247.50
2022-08-25T17:29:19.395Z,101249.34
2022-08-25T17:31:48.348Z,101252.03
2022-08-25T17:34:20.337Z,101255.81
2022-08-25T17:36:51.352Z,101253.38
2022-08-25T17:39:22.087Z,101257.91
2022-08-25T17:41:50.613Z,101258.75
2022-08-25T17:44:19.881Z,101258.91
2022-08-25T17:46:48.066Z,101258.91
2022-08-25T17:49:16.053Z,101259.88
2022-08-25T17:51:43.946Z,101258.03
2022-08-25T17:54:13.090Z,101262.59
2022-08-25T17:56:41.116Z,101258.13
2022-08-25T17:59:08.992Z,101259.88
2022-08-25T18:01:42.218Z,101263.31
2022-08-25T18:04:17.341Z,101263.44
2022-08-25T18:06:45.879Z,101257.41
2022-08-25T18:09:14.215Z,101269.06
2022-08-25T18:11:42.413Z,101259.25
2022-08-25T18:14:11.366Z,101262.81
2022-08-25T18:16:40.832Z,101262.69
2022-08-25T18:19:10.795Z,101257.28
2022-08-25T18:21:38.720Z,101263.53
2022-08-25T18:24:06.766Z,101265.38
2022-08-25T18:26:34.692Z,101261.59
2022-08-25T18:29:02.576Z,101262.69
2022-08-25T18:31:30.411Z,101263.91
2022-08-25T18:33:59.498Z,101260.59
2022-08-25T18:36:27.240Z,101263.53
2022-08-25T18:39:13.466Z,101266.47
2022-08-25T18:41:42.902Z,101266.59
2022-08-25T18:44:15.678Z,101261.44
2022-08-25T18:46:45.515Z,101265.09
2022-08-25T18:49:17.192Z,101261.69
2022-08-25T18:51:45.746Z,101264.38
2022-08-25T18:54:23.120Z,101267.19
2022-08-25T18:56:51.834Z,101271.72
2022-08-25T18:59:19.549Z,101275.41
2022-08-25T19:01:47.465Z,101271.72
2022-08-25T19:04:16.874Z,101264.63
2022-08-25T19:06:45.176Z,101270.00
2022-08-25T19:09:12.969Z,101268.31
2022-08-25T19:11:40.716Z,101271.00
2022-08-25T19:14:12.421Z,101273.78
2022-08-25T19:16:47.165Z,101271.97
2022-08-25T19:19:17.659Z,101281.78
2022-08-25T19:21:48.329Z,101280.06
2022-08-25T19:24:19.268Z,101272.09
2022-08-25T19:26:47.316Z,101277.47
2022-08-25T19:29:18.298Z,101288.28
2022-08-25T19:31:46.810Z,101294.53
2022-08-25T19:34:18.723Z,101283.72
2022-08-25T19:36:50.973Z,101285.56
2022-08-25T19:39:18.783Z,101294.66
2022-08-25T19:41:46.918Z,101292.81
2022-08-25T19:44:16.403Z,101291.09
2022-08-25T19:46:45.218Z,101287.41
2022-08-25T19:49:15.366Z,101292.81
2022-08-25T19:51:44.745Z,101294.66
2022-08-25T19:54:14.908Z,101304.59
2022-08-25T19:56:54.898Z,101313.56
2022-08-25T19:59:25.368Z,101311.72
2022-08-25T20:01:53.740Z,101309.88
2022-08-25T20:04:24.530Z,101315.25
2022-08-25T20:06:52.700Z,101312.56
2022-08-25T20:09:39.355Z,101317.97
2022-08-25T20:12:10.292Z,101319.81
2022-08-25T20:14:38.333Z,101326.06
2022-08-25T20:17:23.910Z,101319.03
2022-08-25T20:19:55.453Z,101329.75
2022-08-25T20:22:26.104Z,101333.44
2022-08-25T20:24:57.526Z,101332.53
2022-08-25T20:27:34.054Z,101331.69
2022-08-25T20:30:03.234Z,101340.75
2022-08-25T20:32:32.380Z,101330.97
2022-08-25T20:35:00.383Z,101333.66
2022-08-25T20:37:28.196Z,101327.41
2022-08-25T20:39:57.344Z,101339.06
2022-08-25T20:42:25.142Z,101343.59
2022-08-25T20:44:54.697Z,101341.84
2022-08-25T20:47:22.802Z,101351.78
2022-08-25T20:49:50.559Z,101350.94
2022-08-25T20:52:19.509Z,101354.47
2022-08-25T20:54:50.413Z,101354.63
2022-08-25T20:57:25.773Z,101360.88
2022-08-25T20:59:54.732Z,101363.56
2022-08-25T21:02:22.985Z,101364.53
2022-08-25T21:04:50.791Z,101365.47
2022-08-25T21:07:18.549Z,101372.63
2022-08-25T21:09:46.526Z,101372.63
2022-08-25T21:12:15.251Z,101376.25
2022-08-25T21:14:44.865Z,101374.56
2022-08-25T21:17:12.994Z,101372.72
2022-08-25T21:19:41.878Z,101382.66
2022-08-25T21:22:09.803Z,101379.94
2022-08-25T21:24:39.077Z,101380.06
2022-08-25T21:27:07.207Z,101382.78
2022-08-25T21:29:34.967Z,101383.63
2022-08-25T21:32:04.444Z,101386.34
2022-08-25T21:34:32.212Z,101380.94
2022-08-25T21:37:00.393Z,101379.22
2022-08-25T21:39:32.080Z,101387.31
2022-08-25T21:42:00.593Z,101392.72
2022-08-25T21:44:28.473Z,101387.31
2022-08-25T21:46:57.700Z,101382.88
2022-08-25T21:49:26.753Z,101390.00
2022-08-25T21:52:03.331Z,101394.53
2022-08-25T21:54:33.687Z,101387.41
2022-08-25T21:57:03.129Z,101399.91
2022-08-25T21:59:32.322Z,101389.25
2022-08-25T22:02:01.118Z,101393.66
2022-08-25T22:04:30.815Z,101394.66
2022-08-25T22:06:59.260Z,101393.66
2022-08-25T22:09:28.252Z,101388.41
2022-08-25T22:11:56.301Z,101393.66
2022-08-25T22:14:26.127Z,101395.63
2022-08-25T22:16:54.590Z,101391.94
2022-08-25T22:19:23.300Z,101396.50
2022-08-25T22:21:54.256Z,101401.88
2022-08-25T22:24:22.201Z,101399.19
2022-08-25T22:26:50.348Z,101398.34
2022-08-25T22:29:24.787Z,101402.88
2022-08-25T22:31:53.099Z,101404.72
2022-08-25T22:34:31.665Z,101406.41
2022-08-25T22:37:01.591Z,101413.66
2022-08-25T22:39:29.808Z,101410.97
2022-08-25T22:41:57.608Z,101406.41
2022-08-25T22:44:26.202Z,101399.31
2022-08-25T22:46:54.152Z,101411.06
2022-08-25T22:49:22.060Z,101409.22
2022-08-25T22:51:49.957Z,101411.91
2022-08-25T22:54:20.029Z,101420.91
2022-08-25T22:56:47.751Z,101415.50
2022-08-25T22:59:15.491Z,101427.16
2022-08-25T23:01:44.923Z,101419.16
2022-08-25T23:04:13.668Z,101420.91
2022-08-25T23:06:41.463Z,101413.75
2022-08-25T23:09:10.800Z,101414.63
2022-08-25T23:11:40.101Z,101419.16
2022-08-25T23:14:10.349Z,101421.00
2022-08-25T23:16:48.462Z,101421.84
2022-08-25T23:19:17.864Z,101416.59
2022-08-25T23:22:03.639Z,101424.66
2022-08-25T23:24:32.398Z,101426.38
2022-08-25T23:27:02.938Z,101422.84
2022-08-25T23:29:32.454Z,101427.38
2022-08-25T23:32:00.177Z,101429.22
2022-08-25T23:34:28.789Z,101425.66
2022-08-25T23:36:57.300Z,101430.06
2022-08-25T23:39:25.426Z,101426.50
2022-08-25T23:41:53.200Z,101423.81
2022-08-25T23:44:23.206Z,101436.44
2022-08-25T23:46:53.430Z,101431.06
2022-08-25T23:49:22.549Z,101436.44
2022-08-25T23:51:52.904Z,101438.28
2022-08-25T23:54:21.451Z,101432.00
2022-08-25T23:56:52.313Z,101432.00
2022-08-25T23:59:24.827Z,101444.63
